Time;durP1;ratioP1;P1;durP2;ratioP2;P2;SDS_P1;SDS_P2;PMS_P1;PMS_P2;Temp;Humidity;BMP_temperature;BMP_pressure;BME280_temperature;BME280_humidity;BME280_pressure;Samples;Min_cycle;Max_cycle;Signal;HPM_P1;HPM_P2
2021/12/05 00:23:20;;;;;;;11.15;4.72;;;4.30;99.90;;;;;;5132330;27;20134;-52
2021/12/05 00:25:50;;;;;;;12.75;3.60;;;4.20;99.90;;;;;;5133336;27;20034;-51
2021/12/05 00:33:39;;;;;;;11.20;4.40;;;4.20;99.90;;;;;;5132576;27;19915;-54
2021/12/05 00:37:47;;;;;;;13.68;4.57;;;4.20;99.90;;;;;;5132846;27;20465;-53
2021/12/05 00:56:22;;;;;;;12.65;6.47;;;4.20;99.90;;;;;;5035660;28;20041;-50
2021/12/05 01:12:00;;;;;;;11.85;5.28;;;4.10;99.90;;;;;;5132746;27;20085;-49
2021/12/05 01:17:01;;;;;;;18.67;5.57;;;4.10;99.90;;;;;;5132021;27;20100;-50
2021/12/05 01:19:30;;;;;;;19.85;6.43;;;4.10;99.90;;;;;;5131391;27;20554;-49
2021/12/05 01:22:00;;;;;;;13.98;5.85;;;4.10;99.90;;;;;;5132854;27;20043;-48
2021/12/05 01:24:42;;;;;;;14.93;6.90;;;4.10;99.90;;;;;;5131854;27;20035;-47
2021/12/05 01:27:24;;;;;;;10.52;6.32;;;4.10;99.90;;;;;;5132520;27;20039;-47
2021/12/05 01:33:00;;;;;;;13.82;6.68;;;4.10;99.90;;;;;;5094399;28;20400;-49
2021/12/05 01:35:47;;;;;;;18.13;8.17;;;4.10;99.90;;;;;;5130948;27;20435;-50
2021/12/05 01:38:25;;;;;;;18.48;8.05;;;4.10;99.90;;;;;;5130968;27;20448;-49
2021/12/05 01:43:58;;;;;;;18.38;10.20;;;4.10;99.90;;;;;;5131109;27;20048;-46
2021/12/05 01:49:47;;;;;;;26.67;11.88;;;4.20;99.90;;;;;;5106291;27;20047;-49
2021/12/05 01:52:25;;;;;;;19.08;12.60;;;4.20;99.90;;;;;;5111456;28;20118;-48
2021/12/05 02:16:05;;;;;;;28.27;14.27;;;4.30;99.90;;;;;;5131245;27;20407;-51
2021/12/05 02:30:09;;;;;;;24.55;13.20;;;4.40;99.90;;;;;;5130287;27;20487;-53
2021/12/05 02:32:52;;;;;;;27.40;12.88;;;4.30;99.90;;;;;;5130662;27;20453;-52
2021/12/05 02:38:16;;;;;;;36.88;13.25;;;4.30;99.90;;;;;;5129936;27;20122;-49
2021/12/05 02:43:46;;;;;;;31.10;13.05;;;4.40;99.90;;;;;;5130273;27;20107;-54
2021/12/05 02:46:13;;;;;;;29.23;12.60;;;4.40;99.90;;;;;;5130595;27;20053;-52
2021/12/05 02:48:39;;;;;;;24.05;11.02;;;4.40;99.90;;;;;;5129767;28;20480;-52
2021/12/05 02:51:18;;;;;;;23.75;11.63;;;4.40;99.90;;;;;;5130812;28;20062;-53
2021/12/05 02:53:49;;;;;;;27.13;10.85;;;4.40;99.90;;;;;;5130112;28;20067;-50
2021/12/05 02:56:17;;;;;;;26.08;10.02;;;4.40;99.90;;;;;;5131570;28;20040;-48
2021/12/05 02:58:57;;;;;;;26.13;11.38;;;4.40;99.90;;;;;;5130242;28;20065;-49
2021/12/05 03:01:55;;;;;;;25.73;9.63;;;4.40;99.90;;;;;;5124983;28;20087;-48
2021/12/05 03:04:15;;;;;;;21.77;8.88;;;4.30;99.90;;;;;;5128726;28;20556;-48
2021/12/05 03:06:50;;;;;;;20.25;9.70;;;4.30;99.90;;;;;;5131047;28;20047;-47
2021/12/05 03:09:16;;;;;;;16.05;8.18;;;4.30;99.90;;;;;;5130311;28;20116;-47
2021/12/05 03:11:43;;;;;;;21.98;8.20;;;4.30;99.90;;;;;;5130300;28;20074;-49
2021/12/05 03:14:09;;;;;;;23.75;9.15;;;4.30;99.90;;;;;;5129363;28;20559;-48
2021/12/05 03:16:37;;;;;;;17.90;8.57;;;4.30;99.90;;;;;;5131170;27;20042;-48
2021/12/05 03:19:05;;;;;;;18.02;7.57;;;4.20;99.90;;;;;;5134625;27;20439;-50
2021/12/05 03:21:31;;;;;;;19.42;7.53;;;4.20;99.90;;;;;;5134404;27;20030;-50
2021/12/05 03:23:57;;;;;;;16.40;6.13;;;4.20;99.90;;;;;;5133659;27;20043;-49
2021/12/05 03:26:25;;;;;;;;;;;4.20;99.90;;;;;;5134807;27;20411;-49
2021/12/05 03:28:54;;;;;;;;;;;4.20;99.90;;;;;;5134127;27;19927;-49
2021/12/05 03:31:20;;;;;;;26.92;8.82;;;4.20;99.90;;;;;;5134532;27;20300;-49
2021/12/05 03:33:47;;;;;;;12.93;5.68;;;4.20;99.90;;;;;;5133460;27;20043;-48
2021/12/05 03:36:13;;;;;;;23.50;6.15;;;4.20;99.90;;;;;;5134855;27;20449;-49
2021/12/05 03:38:41;;;;;;;11.70;5.05;;;4.20;99.90;;;;;;5133757;27;20117;-47
2021/12/05 03:41:08;;;;;;;12.73;5.38;;;4.10;99.90;;;;;;5134186;27;20127;-47
2021/12/05 03:43:34;;;;;;;13.75;6.38;;;4.10;99.90;;;;;;5133091;27;20039;-47
2021/12/05 03:46:00;;;;;;;13.82;5.03;;;4.10;99.90;;;;;;5134259;27;20046;-47
2021/12/05 03:48:31;;;;;;;20.90;5.88;;;4.10;99.90;;;;;;5132991;27;20047;-49
2021/12/05 03:50:58;;;;;;;13.63;4.72;;;4.10;99.90;;;;;;5133564;27;20039;-52
2021/12/05 03:53:24;;;;;;;20.02;5.25;;;4.10;99.90;;;;;;5132815;27;20031;-48
2021/12/05 03:55:52;;;;;;;13.48;5.18;;;4.00;99.90;;;;;;5133914;27;20488;-49
2021/12/05 03:58:18;;;;;;;25.83;7.70;;;4.00;99.90;;;;;;5133240;27;20039;-49
2021/12/05 04:00:45;;;;;;;;;;;4.00;99.90;;;;;;5134606;27;20061;-51
2021/12/05 04:03:14;;;;;;;15.05;5.35;;;3.90;99.90;;;;;;5133031;27;20368;-49
2021/12/05 04:05:40;;;;;;;18.55;4.55;;;3.90;99.90;;;;;;5133682;27;20094;-49
2021/12/05 04:08:10;;;;;;;15.40;6.40;;;3.90;99.90;;;;;;5132895;27;20071;-48
2021/12/05 04:10:40;;;;;;;15.25;5.75;;;3.90;99.90;;;;;;5133982;27;20039;-52
2021/12/05 04:13:06;;;;;;;16.42;5.78;;;3.80;99.90;;;;;;5133176;27;20035;-50
2021/12/05 04:15:32;;;;;;;17.05;5.68;;;3.80;99.90;;;;;;5133805;27;20080;-51
2021/12/05 04:17:58;;;;;;;21.23;5.03;;;3.70;99.90;;;;;;5132636;27;20142;-51
2021/12/05 04:20:26;;;;;;;13.20;5.60;;;3.70;99.90;;;;;;5133803;27;20039;-52
2021/12/05 04:22:53;;;;;;;15.32;4.78;;;3.70;99.90;;;;;;5132932;27;20088;-51
2021/12/05 04:25:19;;;;;;;;;;;3.60;99.90;;;;;;5133498;27;20039;-50
2021/12/05 04:27:47;;;;;;;15.82;4.80;;;3.60;99.90;;;;;;5133001;27;19965;-53
2021/12/05 04:30:15;;;;;;;13.63;5.10;;;3.60;99.90;;;;;;5132934;27;20039;-52
2021/12/05 04:32:41;;;;;;;14.40;5.63;;;3.50;99.90;;;;;;5115591;27;20039;-52
2021/12/05 04:35:07;;;;;;;15.20;5.37;;;3.50;99.90;;;;;;5132652;27;20035;-52
2021/12/05 04:37:33;;;;;;;15.32;7.00;;;3.50;99.90;;;;;;5132723;27;20042;-52
2021/12/05 04:39:59;;;;;;;21.70;5.90;;;3.40;99.90;;;;;;5133193;27;20472;-52
2021/12/05 04:42:24;;;;;;;11.40;4.87;;;3.40;99.90;;;;;;5114930;27;20555;-52
2021/12/05 04:44:50;;;;;;;18.27;5.30;;;3.40;99.90;;;;;;5132320;27;20039;-52
2021/12/05 04:47:16;;;;;;;27.67;7.38;;;3.40;99.90;;;;;;5133029;27;20031;-48
2021/12/05 04:49:41;;;;;;;17.00;6.33;;;3.40;99.90;;;;;;5131994;27;20513;-50
2021/12/05 04:52:09;;;;;;;18.87;5.93;;;3.30;99.90;;;;;;5132899;27;20046;-49
2021/12/05 04:54:35;;;;;;;12.98;6.05;;;3.30;99.90;;;;;;5132116;27;20279;-48
2021/12/05 04:57:01;;;;;;;22.55;6.70;;;3.30;99.90;;;;;;5133018;27;20031;-48
2021/12/05 04:59:29;;;;;;;21.43;5.83;;;3.30;99.90;;;;;;5131865;27;20031;-49
2021/12/05 05:01:59;;;;;;;26.50;7.22;;;3.30;99.90;;;;;;5133101;27;20698;-47
2021/12/05 05:04:29;;;;;;;22.98;5.72;;;3.40;99.90;;;;;;5131392;27;20031;-48
2021/12/05 05:07:05;;;;;;;17.63;5.55;;;3.40;99.90;;;;;;5132477;27;20094;-48
2021/12/05 05:09:30;;;;;;;19.48;5.47;;;3.40;99.90;;;;;;5131826;27;20424;-47
2021/12/05 05:11:56;;;;;;;17.13;5.50;;;3.40;99.90;;;;;;5132775;27;20042;-49
2021/12/05 05:14:22;;;;;;;25.83;5.73;;;3.40;99.90;;;;;;5131420;27;20053;-50
2021/12/05 05:16:53;;;;;;;17.95;5.53;;;3.40;99.90;;;;;;5132114;27;20085;-48
2021/12/05 05:19:21;;;;;;;16.77;5.68;;;3.30;99.90;;;;;;5131087;27;20107;-48
2021/12/05 05:21:56;;;;;;;24.10;6.00;;;3.40;99.90;;;;;;5132616;27;20057;-48
2021/12/05 05:24:44;;;;;;;14.20;5.38;;;3.30;99.90;;;;;;5131530;27;20035;-49
2021/12/05 05:43:23;;;;;;;16.95;5.88;;;3.40;99.90;;;;;;5111192;28;20075;-48
2021/12/05 05:48:41;;;;;;;16.00;5.03;;;3.50;99.90;;;;;;5130701;27;20507;-50
2021/12/05 05:51:09;;;;;;;35.58;7.65;;;3.40;99.90;;;;;;5131717;27;20416;-49
2021/12/05 05:53:35;;;;;;;14.15;4.50;;;3.40;99.90;;;;;;5130998;27;20037;-48
2021/12/05 05:56:02;;;;;;;20.75;6.10;;;3.50;99.90;;;;;;5131924;27;20074;-51
2021/12/05 05:58:40;;;;;;;23.42;6.22;;;3.50;99.90;;;;;;5130657;27;20566;-47
2021/12/05 06:01:14;;;;;;;18.67;5.13;;;3.50;99.90;;;;;;5132078;27;20051;-49
2021/12/05 06:03:39;;;;;;;24.58;5.85;;;3.50;99.90;;;;;;5130778;27;20031;-49
2021/12/05 06:06:08;;;;;;;14.03;5.13;;;3.50;99.90;;;;;;5132230;27;20077;-48
2021/12/05 06:08:35;;;;;;;24.23;6.50;;;3.50;99.90;;;;;;5130937;27;20384;-50
2021/12/05 06:11:05;;;;;;;21.50;6.65;;;3.60;99.90;;;;;;5131389;27;20472;-52
2021/12/05 06:13:32;;;;;;;17.05;7.55;;;3.60;99.90;;;;;;5130591;27;20050;-50
2021/12/05 06:15:58;;;;;;;25.17;7.50;;;3.60;99.90;;;;;;5131003;27;20257;-50
2021/12/05 06:18:24;;;;;;;18.08;6.47;;;3.60;99.90;;;;;;5131120;27;20315;-52
2021/12/05 06:20:51;;;;;;;13.82;7.03;;;3.60;99.90;;;;;;5131146;27;20043;-51
2021/12/05 06:23:17;;;;;;;19.40;6.10;;;3.60;99.90;;;;;;5130327;27;20031;-53
2021/12/05 06:25:45;;;;;;;21.23;7.25;;;3.70;99.90;;;;;;5130725;27;20046;-50
2021/12/05 06:28:13;;;;;;;23.38;8.27;;;3.70;99.90;;;;;;5130434;27;20468;-53
2021/12/05 06:30:53;;;;;;;22.15;7.13;;;3.70;99.90;;;;;;5131112;27;20109;-51
2021/12/05 06:46:34;;;;;;;;;;;3.90;99.90;;;;;;5131572;27;20039;-48
2021/12/05 06:49:00;;;;;;;20.92;9.30;;;3.90;99.90;;;;;;5130072;28;20364;-47
2021/12/05 06:51:28;;;;;;;27.47;9.93;;;3.90;99.90;;;;;;5132060;27;20079;-48
2021/12/05 06:53:55;;;;;;;22.77;9.48;;;3.90;99.90;;;;;;5137052;27;20035;-49
2021/12/05 06:56:21;;;;;;;24.52;8.18;;;3.90;99.90;;;;;;5137946;27;20110;-51
2021/12/05 06:58:48;;;;;;;21.75;8.88;;;3.90;99.90;;;;;;5136943;27;20043;-48
2021/12/05 07:01:14;;;;;;;18.38;8.90;;;4.00;99.90;;;;;;5137224;27;20042;-48
2021/12/05 07:03:43;;;;;;;;;;;4.00;99.90;;;;;;5137538;27;20043;-47
2021/12/05 07:06:11;;;;;;;19.92;9.82;;;4.00;99.90;;;;;;5137545;27;19962;-47
2021/12/05 07:08:40;;;;;;;24.17;9.98;;;4.00;99.90;;;;;;5118586;27;20058;-48
2021/12/05 07:11:21;;;;;;;22.77;8.85;;;4.00;99.90;;;;;;5136973;27;20039;-47
2021/12/05 07:19:04;;;;;;;16.88;8.98;;;4.10;99.90;;;;;;5137102;27;20045;-49
2021/12/05 07:24:07;;;;;;;22.57;9.70;;;4.10;99.90;;;;;;5136492;27;20510;-49
2021/12/05 07:42:47;;;;;;;17.15;8.77;;;4.20;99.90;;;;;;5136014;27;20046;-51
2021/12/05 07:45:19;;;;;;;17.35;9.18;;;4.20;99.90;;;;;;5136768;27;20046;-48
2021/12/05 07:47:49;;;;;;;16.38;8.57;;;4.20;99.90;;;;;;5127052;27;20036;-52
2021/12/05 07:50:16;;;;;;;21.77;8.45;;;4.20;99.90;;;;;;5135698;27;20027;-48
2021/12/05 07:52:47;;;;;;;15.15;7.30;;;4.20;99.90;;;;;;5136483;27;20060;-49
2021/12/05 07:55:21;;;;;;;17.73;8.00;;;4.20;99.90;;;;;;5135912;27;20228;-48
2021/12/05 07:58:52;;;;;;;16.92;7.35;;;4.20;99.90;;;;;;5135636;27;20572;-51
2021/12/05 08:14:34;;;;;;;24.80;8.30;;;4.30;99.90;;;;;;5121857;27;20492;-52
2021/12/05 08:17:01;;;;;;;13.80;7.40;;;4.30;99.90;;;;;;5121660;27;20487;-54
2021/12/05 08:19:26;;;;;;;16.85;6.45;;;4.30;99.90;;;;;;5128472;27;20125;-52
2021/12/05 08:21:55;;;;;;;13.27;6.67;;;4.30;99.90;;;;;;5133875;27;20157;-49
2021/12/05 08:24:25;;;;;;;16.63;7.30;;;4.30;99.90;;;;;;5132583;27;20045;-49
2021/12/05 08:26:52;;;;;;;19.20;6.88;;;4.30;99.90;;;;;;5115334;27;20480;-52
2021/12/05 08:29:22;;;;;;;15.13;6.80;;;4.30;99.90;;;;;;5132713;27;20142;-47
2021/12/05 08:34:33;;;;;;;13.02;6.05;;;4.30;99.90;;;;;;5132648;27;20453;-51
2021/12/05 08:45:22;;;;;;;9.63;5.50;;;4.40;99.90;;;;;;5132645;27;20039;-47
2021/12/05 09:26:03;;;;;;;14.32;5.80;;;4.50;99.90;;;;;;5132758;27;20051;-48
2021/12/05 10:09:04;;;;;;;12.55;6.68;;;4.60;99.90;;;;;;5130057;27;20035;-47
2021/12/05 10:11:49;;;;;;;17.70;7.22;;;4.60;99.90;;;;;;5124009;27;20122;-46
2021/12/05 10:14:27;;;;;;;13.68;7.32;;;4.70;99.90;;;;;;5120542;27;20488;-51
2021/12/05 10:17:28;;;;;;;21.90;8.27;;;4.70;99.90;;;;;;5130739;27;20050;-51
2021/12/05 10:20:15;;;;;;;15.40;5.63;;;4.70;99.90;;;;;;5130013;27;20122;-48
2021/12/05 10:34:46;;;;;;;13.57;6.22;;;4.80;99.90;;;;;;5130557;27;20039;-48
2021/12/05 10:37:14;;;;;;;19.38;5.88;;;4.80;99.90;;;;;;5124552;27;20096;-48
2021/12/05 10:39:40;;;;;;;12.25;5.93;;;4.90;99.90;;;;;;5130288;27;20026;-47
2021/12/05 10:42:37;;;;;;;16.30;5.55;;;4.90;99.90;;;;;;5130732;27;20535;-47
2021/12/05 10:45:06;;;;;;;12.50;6.23;;;4.90;99.90;;;;;;5129746;27;20042;-47
2021/12/05 10:47:41;;;;;;;13.43;6.70;;;4.90;99.90;;;;;;5127536;27;20075;-47
2021/12/05 10:50:46;;;;;;;14.60;6.75;;;4.90;99.90;;;;;;5129333;28;20075;-47
2021/12/05 10:53:19;;;;;;;13.30;6.05;;;4.90;99.90;;;;;;5126634;28;20518;-47
2021/12/05 10:55:45;;;;;;;13.30;6.13;;;5.00;99.90;;;;;;5130479;28;20035;-47
2021/12/05 10:58:11;;;;;;;10.25;5.85;;;5.00;99.90;;;;;;5129757;28;20047;-47
2021/12/05 11:00:37;;;;;;;11.52;6.32;;;5.10;99.90;;;;;;5130358;28;20041;-48
2021/12/05 11:03:20;;;;;;;12.57;5.07;;;5.10;99.90;;;;;;5129968;28;20035;-49
2021/12/05 11:05:46;;;;;;;18.10;6.80;;;5.10;99.90;;;;;;5109129;28;20496;-48
2021/12/05 11:08:54;;;;;;;12.23;5.00;;;5.20;99.90;;;;;;5129393;28;20065;-48
2021/12/05 11:11:20;;;;;;;11.25;5.57;;;5.20;99.90;;;;;;5041204;28;20641;-49
2021/12/05 11:13:46;;;;;;;46.63;7.72;;;5.20;99.90;;;;;;5045985;28;20116;-49
2021/12/05 11:16:32;;;;;;;10.20;4.65;;;5.30;99.90;;;;;;5087611;28;20045;-48
2021/12/05 11:18:58;;;;;;;11.88;5.00;;;5.30;99.90;;;;;;5129605;28;20035;-49
2021/12/05 11:21:36;;;;;;;9.60;4.32;;;5.30;99.90;;;;;;5130588;28;20058;-47
2021/12/05 11:24:10;;;;;;;11.68;4.85;;;5.40;99.90;;;;;;5124827;28;20394;-48
2021/12/05 11:26:38;;;;;;;7.32;3.95;;;5.40;99.90;;;;;;5126663;28;20492;-49
2021/12/05 11:29:04;;;;;;;7.13;4.40;;;5.40;99.90;;;;;;5129521;28;20046;-46
2021/12/05 11:31:32;;;;;;;9.43;4.15;;;5.40;99.90;;;;;;5129824;28;20481;-48
2021/12/05 11:33:58;;;;;;;10.68;5.32;;;5.50;99.90;;;;;;5129955;28;20058;-47
2021/12/05 11:36:35;;;;;;;;;;;5.40;99.90;;;;;;5127414;27;20456;-51
2021/12/05 11:39:23;;;;;;;8.60;3.80;;;5.40;99.90;;;;;;5130588;27;20251;-48
2021/12/05 11:41:49;;;;;;;4.07;3.08;;;5.40;99.90;;;;;;5114653;27;20500;-48
2021/12/05 11:44:21;;;;;;;12.25;4.25;;;5.40;99.90;;;;;;5133627;27;20100;-47
2021/12/05 11:46:48;;;;;;;9.02;5.45;;;5.40;99.90;;;;;;5133718;27;20039;-47
2021/12/05 11:49:23;;;;;;;5.80;3.95;;;5.40;99.90;;;;;;5133367;27;20255;-52
2021/12/05 11:51:56;;;;;;;7.38;4.10;;;5.40;99.90;;;;;;5134235;27;20043;-49
2021/12/05 11:54:40;;;;;;;8.23;4.13;;;5.40;99.90;;;;;;5131863;27;20031;-51
2021/12/05 11:57:08;;;;;;;5.10;4.22;;;5.40;99.90;;;;;;5115386;27;20369;-53
2021/12/05 12:00:02;;;;;;;8.38;4.18;;;5.40;99.90;;;;;;5133380;27;20669;-48
2021/12/05 12:02:34;;;;;;;12.93;4.03;;;5.40;99.90;;;;;;5127673;27;20039;-49
2021/12/05 12:05:13;;;;;;;7.50;4.63;;;5.40;99.90;;;;;;5132818;27;20057;-53
2021/12/05 12:07:48;;;;;;;9.02;3.92;;;5.40;99.90;;;;;;5133530;27;20039;-47
2021/12/05 12:10:19;;;;;;;6.32;3.67;;;5.40;99.90;;;;;;5115714;27;20046;-47
2021/12/05 12:12:59;;;;;;;4.70;4.10;;;5.40;99.90;;;;;;5133371;27;20153;-51
2021/12/05 12:15:27;;;;;;;3.85;3.17;;;5.30;99.90;;;;;;5133142;27;20441;-49
2021/12/05 12:17:58;;;;;;;9.05;4.18;;;5.30;99.90;;;;;;5131755;27;20141;-51
2021/12/05 12:20:26;;;;;;;5.30;4.07;;;5.40;99.90;;;;;;5134024;27;20109;-53
2021/12/05 12:22:54;;;;;;;4.75;2.78;;;5.30;99.90;;;;;;5132954;27;20132;-49
2021/12/05 12:25:24;;;;;;;3.75;2.40;;;5.30;99.90;;;;;;5128503;27;20512;-52
2021/12/05 12:27:51;;;;;;;4.75;2.80;;;5.40;99.90;;;;;;5132379;27;20084;-52
2021/12/05 12:30:24;;;;;;;;;;;5.40;99.90;;;;;;5133916;27;20031;-53
2021/12/05 12:32:53;;;;;;;6.10;4.60;;;5.40;99.90;;;;;;5130658;27;19922;-54
2021/12/05 12:35:23;;;;;;;5.18;4.45;;;5.40;99.90;;;;;;5130537;27;20038;-52
2021/12/05 12:38:14;;;;;;;3.75;3.20;;;5.40;99.90;;;;;;5131246;27;20039;-50
2021/12/05 12:40:44;;;;;;;7.38;4.00;;;5.40;99.90;;;;;;5133215;27;20053;-48
2021/12/05 12:43:35;;;;;;;6.75;4.70;;;5.40;99.90;;;;;;5132586;27;20039;-49
2021/12/05 12:46:27;;;;;;;5.25;4.07;;;5.40;99.90;;;;;;5132473;27;20541;-52
2021/12/05 12:49:16;;;;;;;7.07;5.57;;;5.40;99.90;;;;;;5131765;27;20071;-51
2021/12/05 12:52:05;;;;;;;5.00;4.50;;;5.40;99.90;;;;;;5119476;27;20050;-52
2021/12/05 12:54:44;;;;;;;6.15;4.00;;;5.40;99.90;;;;;;5130359;27;20084;-50
2021/12/05 12:57:23;;;;;;;11.90;4.43;;;5.50;99.90;;;;;;5132580;27;20070;-49
2021/12/05 13:00:02;;;;;;;8.40;3.95;;;5.50;99.90;;;;;;5121755;27;20031;-53
2021/12/05 13:07:21;;;;;;;7.18;3.97;;;5.50;99.90;;;;;;5131812;27;20792;-52
2021/12/05 13:11:17;;;;;;;6.75;3.63;;;5.50;99.90;;;;;;5132182;27;20503;-51
2021/12/05 13:13:45;;;;;;;5.35;3.38;;;5.50;99.90;;;;;;5130769;27;20445;-51
2021/12/05 13:16:17;;;;;;;5.70;3.72;;;5.50;99.90;;;;;;5130642;27;20499;-52
2021/12/05 13:18:46;;;;;;;6.47;4.20;;;5.50;99.90;;;;;;5131346;27;20119;-49
2021/12/05 13:21:15;;;;;;;5.50;3.17;;;5.50;99.90;;;;;;5132477;27;20083;-52
2021/12/05 13:23:48;;;;;;;8.32;4.45;;;5.50;99.90;;;;;;5131169;27;20031;-51
2021/12/05 13:26:23;;;;;;;5.10;4.00;;;5.60;99.90;;;;;;5132199;27;20146;-52
2021/12/05 13:29:12;;;;;;;11.85;3.80;;;5.60;99.90;;;;;;5127061;27;20035;-49
2021/12/05 13:32:07;;;;;;;9.82;4.03;;;5.70;99.90;;;;;;5131799;27;20032;-51
2021/12/05 13:34:35;;;;;;;6.38;3.42;;;5.70;99.90;;;;;;5129351;27;20039;-50
2021/12/05 13:37:06;;;;;;;5.85;3.35;;;5.80;99.90;;;;;;5131875;27;20035;-48
2021/12/05 13:39:49;;;;;;;5.93;3.10;;;5.70;99.90;;;;;;5131678;27;20031;-50
2021/12/05 13:42:34;;;;;;;3.90;2.90;;;5.70;99.90;;;;;;5130229;27;20287;-48
2021/12/05 13:45:06;;;;;;;4.10;2.58;;;5.70;99.90;;;;;;5131417;27;20035;-51
2021/12/05 13:47:50;;;;;;;7.95;3.40;;;5.70;99.90;;;;;;5131634;27;20114;-47
2021/12/05 13:50:16;;;;;;;4.38;2.75;;;5.60;99.90;;;;;;5131500;27;20516;-52
2021/12/05 13:52:45;;;;;;;5.50;3.13;;;5.60;99.90;;;;;;5131965;27;20074;-52
2021/12/05 13:55:35;;;;;;;3.95;3.55;;;5.60;99.90;;;;;;5131403;27;20027;-54
2021/12/05 13:58:26;;;;;;;6.47;3.75;;;5.60;99.90;;;;;;5127162;27;20046;-47
2021/12/05 14:01:04;;;;;;;4.07;3.47;;;5.60;99.90;;;;;;5130667;27;20039;-48
2021/12/05 14:03:44;;;;;;;7.97;3.70;;;5.60;99.90;;;;;;5130971;27;20703;-48
2021/12/05 14:06:32;;;;;;;4.65;3.88;;;5.60;99.90;;;;;;5130195;27;20043;-50
2021/12/05 14:09:05;;;;;;;9.00;2.70;;;5.60;99.90;;;;;;5129418;27;20042;-52
2021/12/05 14:11:32;;;;;;;3.17;2.55;;;5.60;99.90;;;;;;5131588;27;20114;-53
2021/12/05 14:14:02;;;;;;;8.98;3.72;;;5.60;99.90;;;;;;5131131;27;20042;-53
2021/12/05 14:16:35;;;;;;;3.78;3.35;;;5.60;99.90;;;;;;5112260;27;20036;-52
2021/12/05 14:19:01;;;;;;;5.97;2.85;;;5.60;99.90;;;;;;5126251;27;20090;-51
2021/12/05 14:21:28;;;;;;;4.43;3.10;;;5.70;99.90;;;;;;5130618;27;20507;-51
2021/12/05 14:23:57;;;;;;;4.38;3.00;;;5.70;99.90;;;;;;5129886;27;20461;-52
2021/12/05 14:26:27;;;;;;;3.17;2.97;;;5.70;99.90;;;;;;5130364;27;20041;-51
2021/12/05 14:29:00;;;;;;;4.97;3.67;;;5.70;99.90;;;;;;5130139;27;20039;-56
2021/12/05 14:31:29;;;;;;;7.47;3.72;;;5.60;99.90;;;;;;5130714;27;20391;-51
2021/12/05 14:33:56;;;;;;;6.07;3.33;;;5.60;99.90;;;;;;5129842;27;20038;-54
2021/12/05 14:36:28;;;;;;;6.72;3.92;;;5.60;99.90;;;;;;5129909;27;20027;-53
2021/12/05 14:39:09;;;;;;;4.63;4.20;;;5.60;99.90;;;;;;5127801;27;20476;-52
2021/12/05 14:41:34;;;;;;;4.07;3.65;;;5.60;99.90;;;;;;5128881;27;20438;-53
2021/12/05 14:44:00;;;;;;;6.20;4.45;;;5.60;99.90;;;;;;5129595;27;20039;-53
2021/12/05 14:46:27;;;;;;;5.82;4.30;;;5.60;99.90;;;;;;5130179;27;20046;-52
2021/12/05 14:49:04;;;;;;;5.70;3.97;;;5.60;99.90;;;;;;5129251;27;20039;-51
2021/12/05 14:51:36;;;;;;;5.00;3.97;;;5.50;99.90;;;;;;5111255;28;20035;-48
2021/12/05 14:54:02;;;;;;;5.60;4.15;;;5.50;99.90;;;;;;5130154;27;20035;-49
2021/12/05 14:56:34;;;;;;;8.15;4.50;;;5.50;99.90;;;;;;5130567;28;20083;-49
2021/12/05 14:59:18;;;;;;;5.30;4.05;;;5.50;99.90;;;;;;5130119;28;20047;-48
2021/12/05 15:01:50;;;;;;;6.60;3.92;;;5.50;99.90;;;;;;5130431;28;20037;-47
2021/12/05 15:04:26;;;;;;;6.03;4.93;;;5.50;99.90;;;;;;5129946;28;20079;-52
2021/12/05 15:06:52;;;;;;;9.38;5.03;;;5.50;99.90;;;;;;5112465;28;20446;-47
2021/12/05 15:09:25;;;;;;;10.60;5.75;;;5.50;99.90;;;;;;5129755;28;20088;-48
2021/12/05 15:11:58;;;;;;;8.55;4.82;;;5.50;99.90;;;;;;5130123;28;20036;-49
2021/12/05 15:14:25;;;;;;;8.55;3.55;;;5.40;99.90;;;;;;5133803;27;20376;-49
2021/12/05 15:17:13;;;;;;;4.28;3.88;;;5.40;99.90;;;;;;5129383;27;20475;-49
2021/12/05 15:19:41;;;;;;;7.80;3.97;;;5.40;99.90;;;;;;5134600;27;20038;-49
2021/12/05 15:22:12;;;;;;;4.88;3.90;;;5.40;99.90;;;;;;5134614;27;20039;-49
2021/12/05 15:24:38;;;;;;;6.45;4.40;;;5.40;99.90;;;;;;5134193;27;20046;-47
2021/12/05 15:27:11;;;;;;;5.88;4.30;;;5.40;99.90;;;;;;5134175;27;20515;-47
2021/12/05 15:29:38;;;;;;;6.20;4.40;;;5.40;99.90;;;;;;5133918;27;20035;-53
2021/12/05 15:32:04;;;;;;;7.78;4.40;;;5.40;99.90;;;;;;5134414;27;20247;-48
2021/12/05 15:34:34;;;;;;;8.10;5.38;;;5.30;99.90;;;;;;5134118;27;20073;-48
2021/12/05 15:37:07;;;;;;;6.13;5.53;;;5.30;99.90;;;;;;5133906;27;20057;-48
2021/12/05 15:39:34;;;;;;;7.05;5.35;;;5.30;99.90;;;;;;5133857;27;20050;-50
2021/12/05 15:42:00;;;;;;;6.32;5.05;;;5.30;99.90;;;;;;5134106;27;20054;-47
2021/12/05 15:44:28;;;;;;;9.70;6.70;;;5.30;99.90;;;;;;5133202;27;20502;-48
2021/12/05 15:47:15;;;;;;;9.20;6.47;;;5.30;99.90;;;;;;5134057;27;20277;-47
2021/12/05 15:49:47;;;;;;;11.77;6.13;;;5.30;99.90;;;;;;5122368;27;20043;-51
2021/12/05 15:52:14;;;;;;;5.75;5.18;;;5.30;99.90;;;;;;5133740;27;20039;-53
2021/12/05 15:54:43;;;;;;;268.70;30.77;;;5.20;99.90;;;;;;5133022;27;20046;-55
2021/12/05 15:57:23;;;;;;;8.13;6.82;;;5.20;99.90;;;;;;5121931;27;20039;-48
2021/12/05 15:59:49;;;;;;;12.98;6.68;;;5.20;99.90;;;;;;5130362;27;20039;-54
2021/12/05 16:02:19;;;;;;;19.00;7.00;;;5.20;99.90;;;;;;5133728;27;20039;-50
2021/12/05 16:04:46;;;;;;;36.55;8.93;;;5.20;99.90;;;;;;5132389;27;20039;-50
2021/12/05 16:07:12;;;;;;;23.48;8.05;;;5.20;99.90;;;;;;5133438;27;20030;-52
2021/12/05 16:09:41;;;;;;;12.25;7.78;;;5.20;99.90;;;;;;5132757;27;20322;-48
2021/12/05 16:12:17;;;;;;;9.38;8.10;;;5.10;99.90;;;;;;5133415;27;20034;-49
2021/12/05 16:14:48;;;;;;;11.18;8.70;;;5.10;99.90;;;;;;5132726;27;20046;-52
2021/12/05 16:17:18;;;;;;;13.25;8.80;;;5.10;99.90;;;;;;5133529;27;20089;-47
2021/12/05 16:20:07;;;;;;;8.77;7.80;;;5.10;99.90;;;;;;5132666;27;20504;-52
2021/12/05 16:22:33;;;;;;;10.18;7.80;;;5.10;99.90;;;;;;5132898;27;20050;-51
2021/12/05 16:25:16;;;;;;;13.27;8.80;;;5.10;99.90;;;;;;5131729;27;20053;-48
2021/12/05 16:27:49;;;;;;;10.52;9.48;;;5.10;99.90;;;;;;5132939;27;20039;-56
2021/12/05 16:30:28;;;;;;;10.82;9.80;;;5.10;99.90;;;;;;5128301;27;20058;-53
2021/12/05 16:32:54;;;;;;;11.10;9.18;;;5.10;99.90;;;;;;5132833;27;20035;-51
2021/12/05 16:35:32;;;;;;;11.90;8.97;;;5.10;99.90;;;;;;5132854;27;20027;-52
2021/12/05 16:37:58;;;;;;;14.57;10.48;;;5.10;99.90;;;;;;5132222;27;20280;-52
2021/12/05 16:40:25;;;;;;;12.07;9.65;;;5.10;99.90;;;;;;5133030;27;20498;-49
2021/12/05 16:43:09;;;;;;;18.40;10.80;;;5.00;99.90;;;;;;5127911;27;20031;-55
2021/12/05 16:45:38;;;;;;;13.60;11.75;;;5.10;99.90;;;;;;5129853;27;20058;-54
2021/12/05 16:48:05;;;;;;;17.90;10.90;;;5.10;99.90;;;;;;5131002;27;20065;-54
2021/12/05 16:50:31;;;;;;;17.65;11.98;;;5.10;99.90;;;;;;5132654;27;20039;-56
2021/12/05 16:52:57;;;;;;;14.73;12.38;;;5.10;99.90;;;;;;5132680;27;20031;-54
2021/12/05 16:55:27;;;;;;;21.40;13.15;;;5.10;99.90;;;;;;5132363;27;20088;-54
2021/12/05 16:58:06;;;;;;;15.52;12.65;;;5.10;99.90;;;;;;5132037;27;20033;-52
2021/12/05 17:00:36;;;;;;;17.48;13.20;;;5.10;99.90;;;;;;5132429;27;20035;-55
2021/12/05 17:03:05;;;;;;;16.13;13.90;;;5.10;99.90;;;;;;5132360;27;20074;-53
2021/12/05 17:05:37;;;;;;;15.73;12.60;;;5.00;99.90;;;;;;5132443;27;20487;-54
2021/12/05 17:08:16;;;;;;;17.30;12.55;;;5.00;99.90;;;;;;5129979;27;20084;-56
2021/12/05 17:10:50;;;;;;;17.13;12.63;;;5.00;99.90;;;;;;5131191;27;20031;-57
2021/12/05 17:13:49;;;;;;;18.15;13.70;;;5.00;99.90;;;;;;5131396;27;20151;-55
2021/12/05 17:16:21;;;;;;;;;;;5.00;99.90;;;;;;5126528;27;20035;-48
2021/12/05 17:18:58;;;;;;;15.90;13.27;;;5.00;99.90;;;;;;5130198;27;19921;-54
2021/12/05 17:21:33;;;;;;;19.75;13.95;;;5.00;99.90;;;;;;5131113;27;20043;-53
2021/12/05 17:24:05;;;;;;;20.25;12.82;;;5.00;99.90;;;;;;5128492;27;20129;-55
2021/12/05 17:26:40;;;;;;;21.65;15.07;;;5.00;99.90;;;;;;5130820;27;20514;-54
2021/12/05 17:29:23;;;;;;;17.55;13.15;;;5.00;99.90;;;;;;5128573;27;20066;-56
2021/12/05 17:31:53;;;;;;;21.98;14.32;;;5.00;99.90;;;;;;5129295;27;20075;-56
2021/12/05 17:34:23;;;;;;;20.15;14.95;;;5.00;99.90;;;;;;5131009;27;20066;-56
2021/12/05 17:37:02;;;;;;;22.10;14.52;;;5.00;99.90;;;;;;5131242;27;20491;-55
2021/12/05 17:39:31;;;;;;;21.92;15.98;;;5.00;99.90;;;;;;5131736;27;20081;-55
2021/12/05 17:42:02;;;;;;;18.10;14.20;;;5.00;99.90;;;;;;5131279;27;20069;-56
2021/12/05 17:44:28;;;;;;;23.48;14.43;;;5.10;99.90;;;;;;5130371;27;20087;-54
2021/12/05 17:46:58;;;;;;;20.35;14.88;;;5.10;99.90;;;;;;5132015;27;20081;-56
2021/12/05 17:49:26;;;;;;;21.17;14.07;;;5.10;99.90;;;;;;5131393;27;20046;-54
2021/12/05 17:51:52;;;;;;;19.27;14.45;;;5.10;99.90;;;;;;5132283;27;20110;-55
2021/12/05 17:54:35;;;;;;;20.20;13.95;;;5.10;99.90;;;;;;5130897;27;20117;-55
2021/12/05 17:57:30;;;;;;;21.38;14.13;;;5.10;99.90;;;;;;5118742;27;20046;-57
2021/12/05 18:05:07;;;;;;;24.15;14.73;;;5.10;99.90;;;;;;5130788;27;20051;-57
2021/12/05 18:07:32;;;;;;;22.85;15.02;;;5.00;99.90;;;;;;5131191;27;20037;-57